Johstadt, Germany
Current Conditions -  °F | °C
As of 10:00 PM on Tuesday 21 Oct 2014 (Local Time) from LKKV Reporting Station
Rain Showers Rain Showers  
Wind Chill: 50°   Ceiling: 3300
Heat Index: 50°   Visibility: 6mi
Dew Point: 48°   Wind: 7mph
Humidity: 94%   Direction: 210°SSW
Pressure: 29.53"   Gusts: NA
Location:  50.55°N, 13.13°E
Report Text: LKKV 212000Z 21006KT 9999 -SHRA SCT020 BKN033 10/09 Q1000
Loading
Personal Weather Stations






























Interactive Weather Map
Tropical Storm Tracking
New forecast layout! Learn more

10-Day Weather Forecast

Advertisements
Track Severe Weather on mobile